createdAt,value
2023-04-17T00:08:33.392Z,7.9
2023-04-17T00:24:07.500Z,8
2023-04-17T00:39:41.709Z,8.3
2023-04-17T00:55:15.808Z,8.5
2023-04-17T01:10:49.805Z,8.4
2023-04-17T01:26:23.918Z,8.2
2023-04-17T01:41:57.963Z,8.2
2023-04-17T01:57:32.014Z,8.1
2023-04-17T02:13:05.993Z,8
2023-04-17T02:28:40.207Z,8
2023-04-17T02:44:14.185Z,7.9
2023-04-17T02:59:48.216Z,8
2023-04-17T03:15:22.310Z,7.8
2023-04-17T03:30:56.348Z,7.6
2023-04-17T03:46:30.781Z,7.5
2023-04-17T04:02:05.247Z,7.5
2023-04-17T04:17:39.500Z,7.4
2023-04-17T04:33:13.614Z,7.2
2023-04-17T04:48:47.549Z,7.2
2023-04-17T05:04:22.445Z,7.2
2023-04-17T05:19:56.736Z,7.4
2023-04-17T05:35:30.767Z,7.2
2023-04-17T05:51:04.994Z,7
2023-04-17T06:06:39.265Z,6.8
2023-04-17T06:22:13.462Z,6.8
2023-04-17T06:37:47.506Z,6.9
2023-04-17T06:53:21.646Z,6.9
2023-04-17T07:08:57.172Z,6.7
2023-04-17T07:24:31.499Z,6.7
2023-04-17T07:40:05.462Z,6.8
2023-04-17T07:55:39.526Z,6.9
2023-04-17T08:11:13.478Z,6.9
2023-04-17T08:26:48.098Z,6.9
2023-04-17T08:42:22.576Z,7.1
2023-04-17T08:57:56.759Z,7.3
2023-04-17T09:13:31.186Z,7.4
2023-04-17T09:29:05.375Z,7.5
2023-04-17T09:44:39.795Z,7.6
2023-04-17T10:00:13.814Z,7.7
2023-04-17T10:15:47.793Z,8.2
2023-04-17T10:31:22.807Z,8.4
2023-04-17T10:46:57.021Z,9
2023-04-17T11:02:32.157Z,9.2
2023-04-17T11:18:06.618Z,8.7
2023-04-17T11:33:40.827Z,9.1
2023-04-17T11:49:15.276Z,9.6
2023-04-17T12:04:50.681Z,9.8
2023-04-17T12:20:27.800Z,11
2023-04-17T12:36:02.048Z,10.8
2023-04-17T12:51:36.119Z,11.4
2023-04-17T13:07:10.112Z,10.4
2023-04-17T13:22:44.081Z,10.8
2023-04-17T13:38:18.120Z,10.3
2023-04-17T13:53:52.190Z,10.5
2023-04-17T14:09:26.279Z,11
2023-04-17T14:25:00.540Z,11
2023-04-17T14:40:34.722Z,11.3
2023-04-17T14:56:08.808Z,11.5
2023-04-17T15:11:43.125Z,11.4
2023-04-17T15:27:17.180Z,11
2023-04-17T15:42:51.240Z,10.9
2023-04-17T15:58:25.504Z,11.3
2023-04-17T16:13:59.656Z,11.5
2023-04-17T16:29:33.753Z,11.7
2023-04-17T16:45:07.814Z,11.3
2023-04-17T17:00:42.821Z,11.7
2023-04-17T17:16:17.795Z,11.5
2023-04-17T17:31:52.467Z,10.9
2023-04-17T17:47:26.772Z,10.8
2023-04-17T18:03:01.844Z,10.5
2023-04-17T18:18:36.128Z,10.1
2023-04-17T18:34:10.343Z,9.6
2023-04-17T18:49:44.395Z,9.4
2023-04-17T19:05:18.810Z,9.1
2023-04-17T19:20:53.001Z,9
2023-04-17T19:36:26.993Z,9
2023-04-17T19:52:01.144Z,9
2023-04-17T20:07:35.295Z,8.8
2023-04-17T20:23:09.625Z,8.7
2023-04-17T20:38:43.702Z,8.5
2023-04-17T20:54:17.730Z,8.1
2023-04-17T21:09:51.752Z,8.1
2023-04-17T21:25:25.986Z,8.1
2023-04-17T21:41:00.819Z,8
2023-04-17T21:56:34.815Z,7.8
2023-04-17T22:12:08.885Z,7.8
2023-04-17T22:27:42.885Z,7.6
2023-04-17T22:43:16.908Z,7.8
2023-04-17T22:58:50.867Z,7.6
2023-04-17T23:14:24.893Z,7.5
2023-04-17T23:29:59.088Z,7.3
2023-04-17T23:45:33.079Z,7
